TimeCST,TemperatureF,Dew PointF,Humidity,Sea Level PressureIn,VisibilityMPH,Wind Direction,Wind SpeedMPH,Gust SpeedMPH,PrecipitationIn,Events,Conditions,WindDirDegrees,DateUTC
12:52 AM,24.1,18.0,77,29.75,10.0,WNW,6.9,-,N/A,,Clear,290,2014-01-13 06:52:00
1:52 AM,23.0,17.1,78,29.74,10.0,WNW,6.9,-,N/A,,Clear,300,2014-01-13 07:52:00
2:52 AM,21.9,16.0,78,29.74,10.0,WNW,8.1,-,N/A,,Clear,300,2014-01-13 08:52:00
3:52 AM,21.0,15.1,78,29.75,10.0,NW,8.1,-,N/A,,Clear,310,2014-01-13 09:52:00
4:52 AM,19.9,15.1,81,29.74,10.0,West,8.1,-,N/A,,Clear,270,2014-01-13 10:52:00
5:52 AM,12.9,9.0,84,29.74,10.0,SE,5.8,-,N/A,,Clear,130,2014-01-13 11:52:00
6:52 AM,16.0,12.0,84,29.71,10.0,Calm,Calm,-,N/A,,Partly Cloudy,0,2014-01-13 12:52:00
7:52 AM,15.1,10.9,84,29.69,10.0,Calm,Calm,-,N/A,,Mostly Cloudy,0,2014-01-13 13:52:00
8:52 AM,15.1,10.9,84,29.67,10.0,ENE,3.5,-,N/A,,Mostly Cloudy,70,2014-01-13 14:52:00
9:52 AM,17.1,12.9,84,29.65,10.0,ENE,6.9,-,N/A,,Overcast,70,2014-01-13 15:52:00
10:52 AM,18.0,14.0,84,29.63,10.0,East,6.9,-,N/A,,Overcast,90,2014-01-13 16:52:00
11:52 AM,21.0,16.0,81,29.61,10.0,NE,8.1,-,N/A,,Clear,50,2014-01-13 17:52:00
12:52 PM,26.1,19.9,78,29.59,10.0,NE,9.2,-,N/A,,Mostly Cloudy,50,2014-01-13 18:52:00
1:52 PM,30.0,23.0,75,29.55,10.0,NE,4.6,-,N/A,,Clear,50,2014-01-13 19:52:00
2:52 PM,32.0,24.1,73,29.52,10.0,Calm,Calm,-,N/A,,Clear,0,2014-01-13 20:52:00
3:52 PM,34.0,27.0,75,29.51,10.0,Calm,Calm,-,N/A,,Overcast,0,2014-01-13 21:52:00
4:52 PM,36.0,28.0,73,29.50,10.0,WSW,5.8,-,N/A,,Mostly Cloudy,250,2014-01-13 22:52:00
5:52 PM,35.1,28.9,78,29.51,10.0,Calm,Calm,-,N/A,,Overcast,0,2014-01-13 23:52:00
6:52 PM,34.0,28.9,82,29.54,10.0,Calm,Calm,-,N/A,,Overcast,0,2014-01-14 00:52:00
7:52 PM,36.0,30.0,79,29.60,10.0,NW,17.3,20.7,N/A,,Overcast,320,2014-01-14 01:52:00
8:04 PM,36.0,30.9,82,29.54,10.0,NW,18.4,24.2,0.00,Rain,Light Rain,320,2014-01-14 02:04:00
8:42 PM,36.0,30.9,82,29.57,10.0,NW,20.7,27.6,0.00,,Overcast,310,2014-01-14 02:42:00
8:52 PM,35.1,30.9,85,29.65,10.0,NW,20.7,27.6,0.00,,Overcast,320,2014-01-14 02:52:00
9:04 PM,35.1,30.0,82,29.60,9.0,NW,25.3,34.5,0.00,Snow,Light Snow,320,2014-01-14 03:04:00
9:20 PM,35.1,30.0,82,29.61,7.0,NW,25.3,39.1,0.00,Snow,Light Snow,320,2014-01-14 03:20:00
9:52 PM,35.1,28.9,78,29.70,10.0,NNW,25.3,36.8,0.00,,Overcast,330,2014-01-14 03:52:00
10:24 PM,34.0,27.0,75,29.67,10.0,NNW,29.9,43.7,N/A,,Mostly Cloudy,330,2014-01-14 04:24:00
10:41 PM,34.0,27.0,75,29.69,10.0,NW,26.5,43.7,N/A,,Mostly Cloudy,320,2014-01-14 04:41:00
10:52 PM,33.1,25.0,72,29.78,10.0,NW,31.1,48.3,N/A,,Overcast,310,2014-01-14 04:52:00
11:52 PM,28.0,19.9,72,29.85,10.0,NNW,33.4,51.8,N/A,,Mostly Cloudy,330,2014-01-14 05:52:00